Decoded Metar for LTFJ (SABIHA GOKCEN in TURKEY) (IATA:N/A) | Meteo·Mobile Aviation Weather
aviador You're here:

LTFJ Decoded Metar

SABIHA GOKCEN in TURKEY
Report Time2020-02-24 13:50:00
UTC Time2020-02-24 14:07:26
Flight Rules vfr VFR
Wind260° at 17 kt
W.Decomp.*RWY 24: 16.3 kt HW 4.7 kt RCW
Visibility9999 m
Phenomena:Light Shower Rain
Clouds:Broken 030 Hf
Broken 090 Hf
Expected CloudBase > 3,200 ft AGL from Temp-Dew spread
Ceiling3,000 ft
Temp12°C (ISA -2)
Dew Point04°C (58% RH)
AAT4.6°C
QNH1012 hPa
Density Alt187 ft
Elevation322 ft
Report Wrong Elevation
Raw Report
METAR LTFJ 241350Z 26017KT 9999 -SHRA BKN030 BKN090 12/04 Q1012 NOSIG RMK RWY24 25016KT=

Extra information for LTFJ:More info

Metar Taf Metar & Taf Last 4 Metars F.Rules Stats Wind Profile Meteogram Temp Stats Airport Information Weather charts Add Link Nearby VenuesMetar ALERT Operation Metar Decoded Social comments